Time;durP1;ratioP1;P1;durP2;ratioP2;P2;SDS_P1;SDS_P2;PMS_P1;PMS_P2;Temp;Humidity;BMP_temperature;BMP_pressure;BME280_temperature;BME280_humidity;BME280_pressure;Samples;Min_cycle;Max_cycle;Signal;HPM_P1;HPM_P2
2023/01/27 00:00:53;;;;;;;5.78;0.55;;;3.70;72.40;;;;;;4232469;28;20085;-83
2023/01/27 00:03:14;;;;;;;1.92;0.50;;;3.60;72.30;;;;;;4219576;28;20036;-83
2023/01/27 00:05:34;;;;;;;2.83;0.52;;;3.60;72.30;;;;;;4217842;28;20557;-83
2023/01/27 00:07:57;;;;;;;1.98;0.50;;;3.60;72.10;;;;;;4216390;28;20032;-83
2023/01/27 00:10:18;;;;;;;3.78;0.50;;;3.60;72.40;;;;;;4227370;28;20123;-83
2023/01/27 00:15:16;;;;;;;1.75;0.35;;;3.60;72.40;;;;;;4232137;28;20118;-83
2023/01/27 00:17:35;;;;;;;4.78;0.50;;;3.60;72.30;;;;;;4234087;28;20160;-83
2023/01/27 00:19:54;;;;;;;2.42;0.60;;;3.60;72.30;;;;;;4217156;28;20031;-83
2023/01/27 00:24:52;;;;;;;5.90;0.65;;;3.60;72.80;;;;;;4236392;27;20038;-83
2023/01/27 00:27:11;;;;;;;4.15;0.60;;;3.60;72.80;;;;;;4235407;27;20589;-82
2023/01/27 00:29:30;;;;;;;2.00;0.73;;;3.60;72.80;;;;;;4215385;28;20102;-83
2023/01/27 00:34:27;;;;;;;3.38;0.40;;;3.50;72.80;;;;;;4228999;28;20062;-81
2023/01/27 00:36:46;;;;;;;1.52;0.50;;;3.60;72.90;;;;;;4219901;28;20156;-82
2023/01/27 00:39:06;;;;;;;4.68;0.70;;;3.50;73.00;;;;;;4229516;28;20104;-83
2023/01/27 00:41:27;;;;;;;2.28;0.40;;;3.50;72.90;;;;;;4219308;28;20062;-83
2023/01/27 00:43:50;;;;;;;2.28;0.60;;;3.50;72.90;;;;;;4233229;28;20095;-83
2023/01/27 00:46:09;;;;;;;3.42;0.57;;;3.50;72.90;;;;;;4229087;27;20122;-83
2023/01/27 00:48:28;;;;;;;2.47;0.43;;;3.50;72.70;;;;;;4220159;28;20121;-82
2023/01/27 00:50:47;;;;;;;4.22;0.57;;;3.50;72.60;;;;;;4227011;28;20042;-82
2023/01/27 00:53:06;;;;;;;3.92;0.50;;;3.50;72.70;;;;;;4222622;27;20043;-82
2023/01/27 00:55:25;;;;;;;5.75;0.68;;;3.50;72.70;;;;;;4206950;28;20051;-82
2023/01/27 00:57:44;;;;;;;4.95;1.00;;;3.50;72.40;;;;;;4223028;27;20058;-83
2023/01/27 01:00:05;;;;;;;3.15;0.50;;;3.50;72.40;;;;;;4219220;28;20136;-82
2023/01/27 01:02:25;;;;;;;7.20;0.75;;;3.50;72.50;;;;;;4222954;27;20128;-83
2023/01/27 01:04:44;;;;;;;2.75;0.38;;;3.50;72.40;;;;;;4222414;27;20069;-82
2023/01/27 01:07:03;;;;;;;5.38;0.52;;;3.50;72.40;;;;;;4225714;27;20097;-82
2023/01/27 01:09:23;;;;;;;8.40;0.70;;;3.50;72.40;;;;;;4217230;28;20047;-83
2023/01/27 01:11:42;;;;;;;5.22;0.80;;;3.50;72.40;;;;;;4218358;28;20031;-82
2023/01/27 01:14:01;;;;;;;2.95;0.70;;;3.50;72.50;;;;;;4231737;27;20038;-83
2023/01/27 01:16:23;;;;;;;4.47;0.65;;;3.50;72.70;;;;;;4229633;27;20102;-83
2023/01/27 01:18:42;;;;;;;5.65;0.85;;;3.50;72.80;;;;;;4230955;28;20062;-83
2023/01/27 01:21:02;;;;;;;8.88;0.80;;;3.50;72.80;;;;;;4230028;27;20074;-83
2023/01/27 01:23:21;;;;;;;6.60;0.95;;;3.50;73.00;;;;;;4229896;27;20041;-83
2023/01/27 01:25:41;;;;;;;5.95;0.77;;;3.50;73.10;;;;;;4230894;28;20107;-83
2023/01/27 01:28:01;;;;;;;2.30;0.85;;;3.60;73.20;;;;;;4218258;28;20051;-83
2023/01/27 01:30:24;;;;;;;3.38;0.80;;;3.50;73.30;;;;;;4232136;28;20071;-83
2023/01/27 01:32:43;;;;;;;6.95;1.00;;;3.50;73.40;;;;;;4228491;28;20084;-82
2023/01/27 01:35:03;;;;;;;3.55;0.80;;;3.50;73.40;;;;;;4229448;28;20031;-81
2023/01/27 01:37:22;;;;;;;10.75;1.02;;;3.50;73.40;;;;;;4232089;28;20111;-84
2023/01/27 01:39:41;;;;;;;4.90;0.95;;;3.60;73.40;;;;;;4226796;27;20066;-83
2023/01/27 01:42:01;;;;;;;5.18;0.75;;;3.60;73.40;;;;;;4215100;28;20050;-83
2023/01/27 01:44:22;;;;;;;3.47;0.75;;;3.50;73.20;;;;;;4219859;28;20070;-83
2023/01/27 01:46:41;;;;;;;2.92;0.70;;;3.50;73.20;;;;;;4216439;28;20047;-82
2023/01/27 01:49:02;;;;;;;2.67;0.80;;;3.50;73.20;;;;;;4231380;27;21288;-83
2023/01/27 01:51:23;;;;;;;3.72;0.80;;;3.60;73.30;;;;;;4213624;28;20054;-83
2023/01/27 01:54:00;;;;;;;3.58;0.60;;;3.50;73.10;;;;;;4219466;28;20628;-82
2023/01/27 01:56:23;;;;;;;4.88;0.80;;;3.60;73.10;;;;;;4216630;28;20054;-82
2023/01/27 01:58:44;;;;;;;3.63;0.70;;;3.50;73.10;;;;;;4216335;28;20079;-83
2023/01/27 02:01:05;;;;;;;2.08;0.70;;;3.60;73.20;;;;;;4218189;28;20552;-83
2023/01/27 02:03:25;;;;;;;4.57;0.73;;;3.60;73.10;;;;;;4234117;27;20046;-84
2023/01/27 02:05:44;;;;;;;0.68;0.20;;;3.50;73.10;;;;;;4232731;28;20047;-82
2023/01/27 02:08:23;;;;;;;5.95;0.68;;;3.50;73.10;;;;;;4230460;27;20061;-83
2023/01/27 02:10:42;;;;;;;4.13;0.60;;;3.50;73.30;;;;;;4228555;28;20158;-83
2023/01/27 02:13:02;;;;;;;5.05;0.70;;;3.50;73.30;;;;;;4218712;28;20166;-82
2023/01/27 02:15:21;;;;;;;2.63;0.50;;;3.50;74.10;;;;;;4229894;28;20039;-82
2023/01/27 02:17:42;;;;;;;4.78;0.75;;;3.50;73.50;;;;;;4216648;28;20044;-83
2023/01/27 02:20:08;;;;;;;3.15;0.40;;;3.50;73.60;;;;;;4227034;27;20074;-83
2023/01/27 02:23:02;;;;;;;6.32;0.80;;;3.40;73.60;;;;;;4219489;28;20057;-83
2023/01/27 02:25:28;;;;;;;4.25;0.55;;;3.50;73.80;;;;;;4215594;28;20067;-83
2023/01/27 02:27:44;;;;;;;6.30;0.60;;;3.40;73.90;;;;;;4233404;28;20061;-83
2023/01/27 02:30:03;;;;;;;2.97;0.45;;;3.40;74.00;;;;;;4228831;28;20054;-83
2023/01/27 02:32:25;;;;;;;4.32;0.77;;;3.30;74.20;;;;;;4217266;28;20074;-83
2023/01/27 02:34:44;;;;;;;1.60;0.50;;;3.40;74.40;;;;;;4218006;28;20042;-83
2023/01/27 02:37:07;;;;;;;1.52;0.55;;;3.30;74.70;;;;;;4221415;28;20130;-83
2023/01/27 02:39:32;;;;;;;4.35;1.02;;;3.30;74.80;;;;;;4223657;28;20458;-83
2023/01/27 02:41:54;;;;;;;1.65;0.50;;;3.20;75.00;;;;;;4233890;27;20057;-83
2023/01/27 02:44:14;;;;;;;3.03;0.57;;;3.20;75.20;;;;;;4231081;28;20046;-83
2023/01/27 02:46:33;;;;;;;1.13;0.50;;;3.20;75.20;;;;;;4215876;28;20039;-83
2023/01/27 02:48:53;;;;;;;4.53;0.70;;;3.20;75.30;;;;;;4233907;27;20130;-82
2023/01/27 02:51:12;;;;;;;3.00;1.05;;;3.10;75.40;;;;;;4223067;28;20047;-82
2023/01/27 02:53:31;;;;;;;1.85;0.40;;;3.10;75.40;;;;;;4228179;28;20043;-83
2023/01/27 02:55:50;;;;;;;2.28;0.65;;;3.10;75.50;;;;;;4222408;28;20027;-83
2023/01/27 02:58:09;;;;;;;2.95;0.63;;;3.10;75.60;;;;;;4226236;28;20043;-83
2023/01/27 03:00:28;;;;;;;2.65;0.30;;;3.00;75.60;;;;;;4223292;28;20117;-82
2023/01/27 03:02:47;;;;;;;3.35;0.65;;;3.00;75.70;;;;;;4226868;28;20050;-83
2023/01/27 03:05:07;;;;;;;2.17;0.63;;;3.00;76.00;;;;;;4215954;28;20039;-83
2023/01/27 03:07:26;;;;;;;1.05;0.60;;;3.00;76.20;;;;;;4225045;28;20043;-82
2023/01/27 03:09:45;;;;;;;4.35;0.32;;;3.00;77.20;;;;;;4225610;28;20561;-83
2023/01/27 03:12:19;;;;;;;1.45;0.40;;;3.00;76.80;;;;;;4228646;28;20093;-82
2023/01/27 03:19:55;;;;;;;3.33;0.60;;;2.90;76.80;;;;;;4223363;28;20043;-82
2023/01/27 03:22:14;;;;;;;5.85;0.57;;;2.90;76.80;;;;;;4222572;28;20505;-83
2023/01/27 03:24:33;;;;;;;6.85;0.60;;;2.90;77.10;;;;;;4212633;28;20035;-83
2023/01/27 03:26:52;;;;;;;5.07;0.80;;;2.90;77.20;;;;;;4230033;28;20080;-82
2023/01/27 03:31:49;;;;;;;4.15;0.60;;;2.90;77.30;;;;;;4227999;28;20050;-83
2023/01/27 03:34:08;;;;;;;1.30;0.50;;;2.90;77.40;;;;;;4230614;28;20158;-83
2023/01/27 03:47:00;;;;;;;1.58;0.75;;;2.90;76.90;;;;;;4228470;28;20128;-83
2023/01/27 03:49:19;;;;;;;1.35;0.65;;;2.90;76.40;;;;;;4226938;28;20409;-83
2023/01/27 03:51:39;;;;;;;2.60;0.65;;;2.80;76.00;;;;;;4227789;28;20601;-83
2023/01/27 03:53:59;;;;;;;1.50;0.47;;;2.90;75.90;;;;;;4228242;28;20047;-82
2023/01/27 03:56:20;;;;;;;0.77;0.57;;;2.90;75.80;;;;;;4228383;28;20066;-82
2023/01/27 03:58:40;;;;;;;2.38;0.50;;;2.90;75.40;;;;;;4227709;28;20061;-82
2023/01/27 04:01:03;;;;;;;1.58;0.63;;;3.00;75.40;;;;;;4229556;27;20169;-82
2023/01/27 04:08:50;;;;;;;1.38;0.65;;;3.00;74.80;;;;;;4233446;28;20046;-82
2023/01/27 04:13:48;;;;;;;1.90;0.70;;;3.00;74.50;;;;;;4234254;27;20043;-83
2023/01/27 04:16:07;;;;;;;3.50;0.70;;;3.10;74.20;;;;;;4238640;27;20039;-82
2023/01/27 04:18:26;;;;;;;2.00;0.70;;;3.00;73.70;;;;;;4234167;28;20060;-83
2023/01/27 04:20:45;;;;;;;3.05;0.80;;;3.00;74.00;;;;;;4215670;28;20084;-82
2023/01/27 04:23:04;;;;;;;6.38;1.13;;;3.00;74.00;;;;;;4223721;28;20100;-83
2023/01/27 04:25:23;;;;;;;1.33;0.68;;;3.00;74.00;;;;;;4226523;27;20042;-82
2023/01/27 04:27:42;;;;;;;1.40;0.90;;;3.00;73.90;;;;;;4221307;28;20401;-82
2023/01/27 04:30:01;;;;;;;1.95;0.60;;;3.00;73.80;;;;;;4222734;27;20714;-81
2023/01/27 04:32:21;;;;;;;3.88;1.00;;;3.00;73.70;;;;;;4219839;27;20035;-82
2023/01/27 04:34:41;;;;;;;4.25;0.75;;;3.00;73.90;;;;;;4224962;27;20112;-82
2023/01/27 04:37:02;;;;;;;1.42;0.80;;;3.00;73.10;;;;;;4223338;27;20126;-82
2023/01/27 04:39:22;;;;;;;1.33;0.60;;;3.00;72.80;;;;;;4227877;27;20627;-82
2023/01/27 04:41:42;;;;;;;4.63;0.57;;;2.90;72.60;;;;;;4226483;28;20034;-82
2023/01/27 04:44:02;;;;;;;0.90;0.47;;;2.90;72.50;;;;;;4224787;28;20051;-83
2023/01/27 04:46:22;;;;;;;4.13;0.70;;;3.00;72.50;;;;;;4222361;28;20046;-82
2023/01/27 04:48:41;;;;;;;1.30;0.70;;;2.90;72.20;;;;;;4210425;28;20047;-82
2023/01/27 04:51:00;;;;;;;2.42;0.80;;;2.90;72.20;;;;;;4210551;28;20722;-82
2023/01/27 04:53:19;;;;;;;1.65;0.60;;;2.90;72.20;;;;;;4226166;28;20034;-82
2023/01/27 04:55:39;;;;;;;1.48;0.73;;;2.90;72.30;;;;;;4213695;28;20031;-82
2023/01/27 04:57:58;;;;;;;1.45;0.30;;;2.90;72.30;;;;;;4208488;28;20113;-82
2023/01/27 05:00:19;;;;;;;2.85;0.50;;;2.90;72.50;;;;;;4216990;28;20035;-82
2023/01/27 05:02:38;;;;;;;1.95;0.55;;;2.80;72.30;;;;;;4226757;27;20042;-83
2023/01/27 05:04:57;;;;;;;1.17;0.70;;;2.90;72.40;;;;;;4217955;28;20139;-81
2023/01/27 05:07:16;;;;;;;0.70;0.50;;;2.80;73.00;;;;;;4213390;28;20055;-83
2023/01/27 05:09:36;;;;;;;2.80;0.60;;;2.80;72.30;;;;;;4212159;27;20035;-81
2023/01/27 05:11:55;;;;;;;0.85;0.47;;;2.80;72.30;;;;;;4231450;28;20056;-83
2023/01/27 05:14:14;;;;;;;1.00;0.32;;;2.80;72.30;;;;;;4219243;27;20062;-82
2023/01/27 05:16:33;;;;;;;0.38;0.32;;;2.90;72.20;;;;;;4233839;27;20046;-82
2023/01/27 05:18:52;;;;;;;2.40;0.35;;;2.90;72.10;;;;;;4231648;28;20070;-83
2023/01/27 05:21:15;;;;;;;0.50;0.32;;;2.90;72.10;;;;;;4220737;28;20038;-83
2023/01/27 05:23:34;;;;;;;0.43;0.32;;;2.90;71.90;;;;;;4231506;28;20074;-82
2023/01/27 05:25:53;;;;;;;1.90;0.32;;;2.90;71.60;;;;;;4227725;28;20047;-82
2023/01/27 05:28:12;;;;;;;0.57;0.20;;;3.10;71.80;;;;;;4229898;27;20060;-82
2023/01/27 05:30:31;;;;;;;1.40;0.40;;;3.00;71.40;;;;;;4233953;27;20038;-83
2023/01/27 05:32:51;;;;;;;0.90;0.47;;;3.00;71.30;;;;;;4231145;28;20085;-82
2023/01/27 05:35:10;;;;;;;1.02;0.50;;;3.00;71.40;;;;;;4231056;28;20401;-83
2023/01/27 05:37:29;;;;;;;0.88;0.40;;;3.00;71.50;;;;;;4227726;27;20034;-82
2023/01/27 05:39:48;;;;;;;0.57;0.40;;;3.00;71.40;;;;;;4215692;28;20046;-82
2023/01/27 05:42:07;;;;;;;0.60;0.40;;;3.00;71.50;;;;;;4230022;28;20030;-81
2023/01/27 05:44:26;;;;;;;1.35;0.43;;;3.00;71.60;;;;;;4215531;28;20048;-82
2023/01/27 05:46:46;;;;;;;3.25;0.50;;;3.00;71.70;;;;;;4233007;27;20120;-82
2023/01/27 05:49:05;;;;;;;2.20;0.70;;;3.00;71.80;;;;;;4228982;27;20043;-82
2023/01/27 05:51:28;;;;;;;0.80;0.38;;;3.10;71.90;;;;;;4217885;27;20068;-82
2023/01/27 05:53:48;;;;;;;3.08;0.70;;;3.10;71.90;;;;;;4232385;27;20043;-83
2023/01/27 05:56:09;;;;;;;3.00;0.60;;;3.10;71.80;;;;;;4229437;27;20059;-83
2023/01/27 05:58:30;;;;;;;3.70;0.40;;;3.10;71.80;;;;;;4235663;27;20076;-83
2023/01/27 06:00:50;;;;;;;1.30;0.50;;;3.10;71.70;;;;;;4231067;27;20038;-82
2023/01/27 06:03:09;;;;;;;1.25;0.45;;;3.10;71.70;;;;;;4233178;27;20221;-83
2023/01/27 06:05:28;;;;;;;1.65;0.55;;;3.20;71.70;;;;;;4234728;28;20046;-83
2023/01/27 06:07:47;;;;;;;4.60;0.90;;;3.10;71.60;;;;;;4216599;28;20043;-81
2023/01/27 06:10:07;;;;;;;2.22;0.50;;;3.10;71.40;;;;;;4229829;27;20051;-82
2023/01/27 06:12:26;;;;;;;4.30;0.60;;;3.10;71.40;;;;;;4222535;27;20039;-81
2023/01/27 06:14:45;;;;;;;0.75;0.38;;;3.10;71.10;;;;;;4208437;28;20131;-82
2023/01/27 06:17:05;;;;;;;3.13;0.38;;;3.10;71.10;;;;;;4220784;27;20512;-81
2023/01/27 06:19:24;;;;;;;2.55;0.45;;;3.10;71.00;;;;;;4213985;27;20073;-82
2023/01/27 06:21:44;;;;;;;0.88;0.40;;;3.10;71.00;;;;;;4219881;28;20981;-82
2023/01/27 06:24:03;;;;;;;2.80;0.38;;;3.00;70.90;;;;;;4206390;28;20043;-83
2023/01/27 06:26:22;;;;;;;5.38;0.40;;;3.10;71.10;;;;;;4224905;28;20040;-83
2023/01/27 06:28:42;;;;;;;3.40;0.52;;;3.00;70.90;;;;;;4224597;28;21905;-83
2023/01/27 06:31:12;;;;;;;0.82;0.40;;;3.00;70.90;;;;;;4218919;28;20125;-83
2023/01/27 06:33:32;;;;;;;1.58;0.40;;;3.00;70.70;;;;;;4215644;28;20066;-84
2023/01/27 06:35:51;;;;;;;1.80;0.40;;;3.00;70.60;;;;;;4215989;28;20047;-83
2023/01/27 06:38:13;;;;;;;2.45;0.40;;;3.00;70.60;;;;;;4232638;27;20221;-84
2023/01/27 06:40:33;;;;;;;3.92;0.63;;;3.00;70.60;;;;;;4213880;28;20091;-84
2023/01/27 06:42:52;;;;;;;1.88;0.43;;;3.00;70.30;;;;;;4228746;27;20042;-84
2023/01/27 06:45:12;;;;;;;3.60;0.40;;;3.10;70.10;;;;;;4230807;28;20608;-83
2023/01/27 06:47:31;;;;;;;1.27;0.50;;;2.90;70.10;;;;;;4232300;28;20457;-83
2023/01/27 06:49:50;;;;;;;1.95;0.60;;;2.90;70.30;;;;;;4217344;28;20123;-82
2023/01/27 06:52:09;;;;;;;0.65;0.35;;;2.90;70.20;;;;;;4230374;28;20035;-83
2023/01/27 06:54:28;;;;;;;2.63;0.47;;;2.90;70.00;;;;;;4217859;28;20069;-84
2023/01/27 06:56:47;;;;;;;0.47;0.35;;;2.80;70.00;;;;;;4227800;28;20039;-83
2023/01/27 06:59:06;;;;;;;8.00;0.70;;;2.80;70.00;;;;;;4218341;28;20113;-84
2023/01/27 07:01:26;;;;;;;0.50;0.20;;;2.80;70.00;;;;;;4232294;28;20035;-83
2023/01/27 07:03:45;;;;;;;0.93;0.30;;;2.80;70.00;;;;;;4230578;28;20177;-83
2023/01/27 07:06:05;;;;;;;2.78;0.50;;;2.80;70.00;;;;;;4228453;28;20070;-84
2023/01/27 07:08:24;;;;;;;0.60;0.30;;;2.80;70.00;;;;;;4231075;28;20441;-83
2023/01/27 07:10:43;;;;;;;3.63;0.50;;;2.80;69.90;;;;;;4231016;28;20491;-84
2023/01/27 07:13:10;;;;;;;4.57;0.50;;;2.70;69.90;;;;;;4216606;28;20120;-83
2023/01/27 07:15:31;;;;;;;1.52;0.85;;;2.70;69.70;;;;;;4216110;28;20057;-84
2023/01/27 07:17:49;;;;;;;4.13;0.50;;;2.70;69.50;;;;;;4217070;28;20504;-84
2023/01/27 07:20:11;;;;;;;0.95;0.40;;;2.70;69.60;;;;;;4219708;28;20035;-84
2023/01/27 07:22:31;;;;;;;3.42;0.50;;;2.60;69.60;;;;;;4220475;28;20089;-84
2023/01/27 07:24:50;;;;;;;2.15;0.68;;;2.60;69.50;;;;;;4226575;28;20053;-82
2023/01/27 07:27:09;;;;;;;1.05;0.40;;;2.60;69.50;;;;;;4225311;28;20109;-83
2023/01/27 07:29:29;;;;;;;1.23;0.52;;;2.60;69.60;;;;;;4224900;28;20696;-82
2023/01/27 07:31:48;;;;;;;0.90;0.38;;;2.60;69.80;;;;;;4228855;28;20042;-82
2023/01/27 07:34:07;;;;;;;3.67;0.45;;;2.50;70.00;;;;;;4231799;27;21495;-82
2023/01/27 07:36:26;;;;;;;5.03;0.50;;;2.50;70.10;;;;;;4232234;27;20060;-82
2023/01/27 07:38:59;;;;;;;2.83;0.50;;;2.50;70.30;;;;;;4236422;27;20031;-81
2023/01/27 07:41:18;;;;;;;4.00;0.50;;;2.50;70.40;;;;;;4216596;28;20078;-82
2023/01/27 07:43:37;;;;;;;2.90;0.38;;;2.60;70.60;;;;;;4223929;27;20039;-82
2023/01/27 07:45:56;;;;;;;1.70;0.60;;;2.60;70.80;;;;;;4231375;27;20039;-82
2023/01/27 07:48:16;;;;;;;5.53;0.47;;;2.50;70.80;;;;;;4231040;27;20251;-83
2023/01/27 07:50:38;;;;;;;2.17;0.60;;;2.60;71.10;;;;;;4217296;28;20039;-83
2023/01/27 07:52:59;;;;;;;4.57;0.75;;;2.50;71.20;;;;;;4231941;27;20069;-81
2023/01/27 07:55:18;;;;;;;1.23;0.57;;;2.50;71.10;;;;;;4217846;28;20090;-82
2023/01/27 07:57:37;;;;;;;1.13;0.40;;;2.50;71.30;;;;;;4229895;27;20047;-81
2023/01/27 07:59:57;;;;;;;5.03;0.90;;;2.50;71.40;;;;;;4218731;28;20976;-82
2023/01/27 08:02:16;;;;;;;3.95;0.77;;;2.60;71.40;;;;;;4217926;28;20130;-83
2023/01/27 08:04:35;;;;;;;2.72;0.60;;;2.60;71.40;;;;;;4233596;28;20042;-81
2023/01/27 08:06:55;;;;;;;2.15;0.63;;;2.60;71.20;;;;;;4232227;27;20115;-82
2023/01/27 08:09:14;;;;;;;2.58;0.70;;;2.70;71.10;;;;;;4217271;28;20797;-83
2023/01/27 08:11:33;;;;;;;2.55;0.50;;;2.60;71.00;;;;;;4218717;28;20177;-82
2023/01/27 08:13:53;;;;;;;3.38;0.60;;;2.60;70.80;;;;;;4229514;27;20156;-82
2023/01/27 08:16:13;;;;;;;4.55;0.70;;;2.60;70.60;;;;;;4232225;27;20150;-82
2023/01/27 08:18:33;;;;;;;1.88;0.68;;;2.60;70.70;;;;;;4212237;27;20035;-81
2023/01/27 08:20:54;;;;;;;2.15;0.52;;;2.60;70.50;;;;;;4213394;28;20031;-82
2023/01/27 08:23:13;;;;;;;3.83;0.70;;;2.60;70.50;;;;;;4217123;28;20096;-82
2023/01/27 08:25:32;;;;;;;3.92;1.00;;;2.60;70.40;;;;;;4225166;27;20258;-83
2023/01/27 08:27:53;;;;;;;5.50;0.88;;;2.60;70.90;;;;;;4233238;28;20054;-83
2023/01/27 08:30:13;;;;;;;3.95;0.75;;;2.60;70.10;;;;;;4229952;28;20788;-82
2023/01/27 08:32:33;;;;;;;3.10;0.68;;;2.60;70.30;;;;;;4214607;27;20039;-82
2023/01/27 08:34:54;;;;;;;2.38;0.68;;;2.60;70.00;;;;;;4230694;27;20394;-83
2023/01/27 08:37:13;;;;;;;2.17;0.80;;;2.50;70.00;;;;;;4231246;28;20397;-83
2023/01/27 08:39:33;;;;;;;1.98;0.57;;;2.50;70.20;;;;;;4232103;27;20038;-83
2023/01/27 08:41:52;;;;;;;2.70;0.95;;;2.50;70.40;;;;;;4210409;28;20059;-81
2023/01/27 08:44:12;;;;;;;5.88;0.80;;;2.50;70.40;;;;;;4228816;27;20074;-82
2023/01/27 08:46:31;;;;;;;7.65;0.90;;;2.50;70.60;;;;;;4217629;27;20047;-82
2023/01/27 08:48:50;;;;;;;6.53;1.23;;;2.50;70.70;;;;;;4229110;28;20042;-83
2023/01/27 08:51:12;;;;;;;2.45;0.80;;;2.60;70.80;;;;;;4229611;28;20047;-81
2023/01/27 08:53:32;;;;;;;2.83;0.88;;;2.60;70.80;;;;;;4208503;28;20107;-81
2023/01/27 08:55:56;;;;;;;3.53;1.00;;;2.50;70.60;;;;;;4221678;27;20286;-81
2023/01/27 08:58:16;;;;;;;2.25;0.70;;;2.60;70.50;;;;;;4224663;27;20090;-81
2023/01/27 09:00:35;;;;;;;7.43;0.88;;;2.50;70.20;;;;;;4222522;28;20190;-82
2023/01/27 09:02:54;;;;;;;6.18;0.98;;;2.60;70.50;;;;;;4226660;27;20062;-82
2023/01/27 09:05:14;;;;;;;6.60;1.15;;;2.50;70.40;;;;;;4219720;27;20554;-82
2023/01/27 09:07:33;;;;;;;5.93;1.15;;;2.50;70.40;;;;;;4209376;28;20044;-81
2023/01/27 09:09:52;;;;;;;5.15;1.17;;;2.50;70.60;;;;;;4222430;27;20097;-82
2023/01/27 09:12:11;;;;;;;3.40;0.85;;;2.50;70.80;;;;;;4212116;28;20050;-81
2023/01/27 09:14:30;;;;;;;6.03;1.17;;;2.50;71.00;;;;;;4222203;27;20078;-82
2023/01/27 09:16:49;;;;;;;5.32;1.10;;;2.50;71.00;;;;;;4225946;27;20031;-81
2023/01/27 09:19:08;;;;;;;3.55;0.80;;;2.60;71.10;;;;;;4209689;28;20082;-81
2023/01/27 09:21:28;;;;;;;4.75;0.93;;;2.50;71.00;;;;;;4211177;28;20074;-81
2023/01/27 09:23:48;;;;;;;3.45;0.68;;;2.50;71.20;;;;;;4222788;27;20050;-82
2023/01/27 09:26:07;;;;;;;7.93;0.80;;;2.50;71.30;;;;;;4223770;28;21019;-82
2023/01/27 09:28:26;;;;;;;6.68;1.45;;;2.50;71.60;;;;;;4226286;27;20084;-82
2023/01/27 09:30:46;;;;;;;4.25;1.10;;;2.50;71.70;;;;;;4210415;28;20119;-82
2023/01/27 09:33:07;;;;;;;9.30;1.05;;;2.50;71.80;;;;;;4214229;28;20540;-83
2023/01/27 09:35:35;;;;;;;3.70;0.90;;;2.50;71.90;;;;;;4230832;28;20035;-82
2023/01/27 09:37:57;;;;;;;4.38;1.17;;;2.50;72.10;;;;;;4226580;27;20050;-80
2023/01/27 09:40:30;;;;;;;4.40;0.95;;;2.50;72.30;;;;;;4213609;28;20047;-81
2023/01/27 09:43:08;;;;;;;6.80;0.80;;;2.50;71.90;;;;;;4228088;27;20047;-83
2023/01/27 09:45:41;;;;;;;4.50;0.98;;;2.50;71.70;;;;;;4221742;27;20030;-82
2023/01/27 09:48:20;;;;;;;8.13;1.00;;;2.50;71.30;;;;;;4225080;28;20039;-81
2023/01/27 09:50:44;;;;;;;5.55;1.10;;;2.50;71.00;;;;;;4221305;28;20047;-82
2023/01/27 09:53:18;;;;;;;7.40;0.95;;;2.40;71.00;;;;;;4210463;28;20502;-82
2023/01/27 09:55:52;;;;;;;2.60;0.80;;;2.40;71.20;;;;;;4215939;28;20035;-82
2023/01/27 09:58:45;;;;;;;1.70;0.70;;;2.40;71.50;;;;;;4224498;28;20043;-83
2023/01/27 10:01:32;;;;;;;2.65;0.70;;;2.40;71.60;;;;;;4218934;28;20062;-82
2023/01/27 10:04:07;;;;;;;2.28;0.75;;;2.40;71.10;;;;;;4227823;28;20062;-82
2023/01/27 10:06:45;;;;;;;3.10;0.68;;;2.40;71.00;;;;;;4232628;28;20119;-82
2023/01/27 10:09:46;;;;;;;4.15;0.90;;;2.40;71.00;;;;;;4226007;28;20061;-81
2023/01/27 10:12:32;;;;;;;1.55;0.73;;;2.40;71.00;;;;;;4229787;28;20059;-82
2023/01/27 10:15:03;;;;;;;4.53;0.88;;;2.40;71.00;;;;;;4213555;28;20106;-82
2023/01/27 10:17:57;;;;;;;9.25;1.33;;;2.40;70.60;;;;;;4230833;28;20100;-82
2023/01/27 10:20:23;;;;;;;3.25;0.80;;;2.40;70.20;;;;;;4199890;28;20417;-82
2023/01/27 10:23:21;;;;;;;6.50;0.98;;;2.30;70.20;;;;;;4230227;27;20031;-82
2023/01/27 10:26:01;;;;;;;5.80;1.00;;;2.30;70.20;;;;;;4156067;28;20096;-83
2023/01/27 10:28:22;;;;;;;7.13;0.93;;;2.20;70.50;;;;;;4222336;28;20935;-83
2023/01/27 10:30:51;;;;;;;6.45;0.80;;;2.20;70.60;;;;;;4209190;28;20074;-82
2023/01/27 10:33:19;;;;;;;6.30;1.15;;;2.20;71.00;;;;;;4228068;27;20062;-82
2023/01/27 10:35:54;;;;;;;3.70;0.80;;;2.30;71.20;;;;;;4212999;28;20105;-82
2023/01/27 10:39:06;;;;;;;5.43;0.93;;;2.30;71.10;;;;;;4219111;27;20043;-82
2023/01/27 10:41:46;;;;;;;3.78;0.90;;;2.30;71.00;;;;;;4154904;28;20039;-81
2023/01/27 10:44:28;;;;;;;5.10;0.98;;;2.20;70.60;;;;;;4204685;28;20072;-81
2023/01/27 10:47:06;;;;;;;9.40;0.90;;;2.20;70.50;;;;;;4215849;28;20135;-81
2023/01/27 10:49:34;;;;;;;3.92;0.60;;;2.30;70.90;;;;;;4219103;28;20093;-80
2023/01/27 10:52:06;;;;;;;1.88;0.65;;;2.30;70.90;;;;;;4204874;28;20087;-81
2023/01/27 10:54:34;;;;;;;6.15;1.20;;;2.30;70.90;;;;;;4193958;28;20046;-81
2023/01/27 10:56:59;;;;;;;3.58;0.90;;;2.30;71.70;;;;;;4219757;28;20060;-81
2023/01/27 10:59:27;;;;;;;3.10;0.80;;;2.30;71.10;;;;;;4224363;28;20042;-82
2023/01/27 11:01:54;;;;;;;2.58;0.88;;;2.30;70.80;;;;;;4207722;28;20212;-81
2023/01/27 11:04:38;;;;;;;5.65;1.10;;;2.30;70.50;;;;;;4225074;28;20100;-81
2023/01/27 11:06:59;;;;;;;5.07;1.13;;;2.40;70.60;;;;;;4210361;28;20042;-81
2023/01/27 11:09:26;;;;;;;2.53;1.00;;;2.40;70.50;;;;;;4221645;28;20035;-82
2023/01/27 11:11:48;;;;;;;3.22;1.10;;;2.40;70.00;;;;;;4208579;28;20051;-81
2023/01/27 11:14:21;;;;;;;8.30;0.80;;;2.40;69.60;;;;;;4226539;28;20434;-81
2023/01/27 11:16:24;;;;;;;8.00;1.30;;;2.40;69.60;;;;;;4225286;28;20024;-82
2023/01/27 11:18:29;;;;;;;2.60;1.00;;;2.40;69.70;;;;;;4211289;28;20036;-82
2023/01/27 11:20:42;;;;;;;3.25;1.17;;;2.30;69.80;;;;;;4229543;28;20045;-82
2023/01/27 11:23:11;;;;;;;6.68;1.05;;;2.30;69.90;;;;;;4231852;28;20486;-81
2023/01/27 11:25:30;;;;;;;5.18;1.15;;;2.30;70.10;;;;;;4225180;28;20027;-81
2023/01/27 11:27:48;;;;;;;8.02;1.20;;;2.30;70.60;;;;;;4224907;27;20059;-82
2023/01/27 11:30:02;;;;;;;4.80;1.00;;;2.20;70.60;;;;;;4223909;27;20070;-82
2023/01/27 11:32:36;;;;;;;2.65;1.15;;;2.20;70.70;;;;;;4198661;28;20020;-82
2023/01/27 11:34:59;;;;;;;4.80;1.08;;;2.20;70.80;;;;;;4231169;27;20067;-83
2023/01/27 11:37:27;;;;;;;7.35;3.17;;;2.30;71.00;;;;;;4233152;27;20077;-81
2023/01/27 11:39:31;;;;;;;6.00;2.55;;;2.20;70.80;;;;;;4207324;28;20032;-82
2023/01/27 11:41:36;;;;;;;5.75;1.90;;;2.30;71.00;;;;;;4219190;28;20040;-82
2023/01/27 11:43:38;;;;;;;7.38;1.80;;;2.30;71.10;;;;;;4233782;28;20032;-82
2023/01/27 11:45:39;;;;;;;7.03;1.42;;;2.30;71.30;;;;;;4219871;28;20096;-82
2023/01/27 11:47:41;;;;;;;10.55;1.52;;;2.40;71.50;;;;;;4224462;27;20039;-82
2023/01/27 11:49:46;;;;;;;8.82;1.67;;;2.30;70.70;;;;;;4203081;28;20028;-82
2023/01/27 11:51:48;;;;;;;15.25;1.17;;;2.40;70.90;;;;;;4226499;27;20038;-82
2023/01/27 11:54:15;;;;;;;8.15;1.73;;;2.40;70.20;;;;;;4206416;28;20077;-81
2023/01/27 11:56:18;;;;;;;6.70;1.10;;;2.40;70.20;;;;;;4219278;28;20039;-82
2023/01/27 11:58:26;;;;;;;2.53;0.90;;;2.50;70.70;;;;;;4229966;27;20012;-81
2023/01/27 12:00:52;;;;;;;2.40;0.90;;;2.50;70.80;;;;;;4224895;27;20623;-82
2023/01/27 12:03:12;;;;;;;4.95;1.25;;;2.50;70.70;;;;;;4207549;28;20159;-83
2023/01/27 12:05:17;;;;;;;6.35;1.20;;;2.50;69.70;;;;;;4233035;27;20533;-82
2023/01/27 12:07:44;;;;;;;4.70;1.23;;;2.50;69.60;;;;;;4212856;28;20057;-81
2023/01/27 12:09:45;;;;;;;4.65;1.45;;;2.50;70.00;;;;;;4209169;28;20067;-81
2023/01/27 12:11:45;;;;;;;5.90;1.45;;;2.50;69.50;;;;;;4227770;27;20506;-82
2023/01/27 12:13:50;;;;;;;6.80;1.65;;;2.50;69.50;;;;;;4226922;27;20115;-82
2023/01/27 12:15:59;;;;;;;4.55;1.33;;;2.50;69.70;;;;;;4202560;28;20406;-83
2023/01/27 12:18:14;;;;;;;5.07;1.00;;;2.50;69.80;;;;;;4232703;27;20024;-82
2023/01/27 12:20:25;;;;;;;6.32;1.17;;;2.50;69.60;;;;;;4229289;28;20051;-82
2023/01/27 12:22:39;;;;;;;2.03;0.75;;;2.50;69.50;;;;;;4236132;27;20032;-82
2023/01/27 12:24:48;;;;;;;1.88;0.70;;;2.60;69.80;;;;;;4227949;27;20478;-83
2023/01/27 12:26:51;;;;;;;5.18;1.77;;;2.60;69.90;;;;;;4227788;27;20038;-83
2023/01/27 12:28:52;;;;;;;2.40;0.75;;;2.70;70.00;;;;;;4229164;27;20027;-84
2023/01/27 12:31:03;;;;;;;7.38;1.02;;;2.70;69.90;;;;;;4225162;27;20032;-81
2023/01/27 12:33:23;;;;;;;2.92;0.80;;;2.70;70.10;;;;;;4223296;27;20493;-83
2023/01/27 12:35:33;;;;;;;4.13;1.02;;;2.80;70.10;;;;;;4192914;28;20048;-82
2023/01/27 12:37:37;;;;;;;3.83;1.05;;;2.80;70.00;;;;;;4229614;27;20032;-82
2023/01/27 12:39:49;;;;;;;2.42;0.63;;;2.80;69.50;;;;;;4215105;28;20035;-82
2023/01/27 12:41:50;;;;;;;4.97;0.88;;;2.80;69.20;;;;;;4224860;27;20495;-82
2023/01/27 12:44:15;;;;;;;7.32;1.23;;;2.80;68.90;;;;;;4208750;28;20502;-82
2023/01/27 12:46:31;;;;;;;8.98;2.00;;;2.80;68.80;;;;;;4207217;28;20032;-81
2023/01/27 12:48:35;;;;;;;3.50;1.35;;;2.80;68.50;;;;;;4230391;27;20123;-82
2023/01/27 12:50:41;;;;;;;6.05;1.17;;;2.80;68.70;;;;;;4205399;28;20110;-82
2023/01/27 12:53:42;;;;;;;3.67;1.10;;;2.80;68.60;;;;;;4338407;22;20053;-83
2023/01/27 12:55:48;;;;;;;5.43;1.23;;;2.90;68.70;;;;;;4113719;28;20583;-82
2023/01/27 12:57:59;;;;;;;3.05;1.00;;;3.00;68.60;;;;;;4129847;28;20035;-81